sensor_id;sensor_type;location;lat;lon;timestamp;P1;durP1;ratioP1;P2;durP2;ratioP2
75499;SDS011;64076;51.466;7.260;2023-05-19T00:01:22;10.13;;;6.87;;
75499;SDS011;64076;51.466;7.260;2023-05-19T00:03:49;8.60;;;6.60;;
75499;SDS011;64076;51.466;7.260;2023-05-19T00:06:21;10.30;;;6.88;;
75499;SDS011;64076;51.466;7.260;2023-05-19T00:08:49;10.30;;;6.65;;
75499;SDS011;64076;51.466;7.260;2023-05-19T00:11:18;9.07;;;7.05;;
75499;SDS011;64076;51.466;7.260;2023-05-19T00:13:46;8.83;;;6.77;;
75499;SDS011;64076;51.466;7.260;2023-05-19T00:16:13;9.32;;;6.63;;
75499;SDS011;64076;51.466;7.260;2023-05-19T00:18:39;9.45;;;7.10;;
75499;SDS011;64076;51.466;7.260;2023-05-19T00:21:05;8.30;;;6.60;;
75499;SDS011;64076;51.466;7.260;2023-05-19T00:23:31;8.40;;;6.63;;
75499;SDS011;64076;51.466;7.260;2023-05-19T00:25:56;10.83;;;7.13;;
75499;SDS011;64076;51.466;7.260;2023-05-19T00:28:22;8.75;;;6.90;;
75499;SDS011;64076;51.466;7.260;2023-05-19T00:30:49;9.90;;;7.10;;
75499;SDS011;64076;51.466;7.260;2023-05-19T00:33:15;9.60;;;6.72;;
75499;SDS011;64076;51.466;7.260;2023-05-19T00:35:40;7.77;;;6.50;;
75499;SDS011;64076;51.466;7.260;2023-05-19T00:38:06;9.47;;;6.80;;
75499;SDS011;64076;51.466;7.260;2023-05-19T00:40:33;7.82;;;6.43;;
75499;SDS011;64076;51.466;7.260;2023-05-19T00:43:00;9.30;;;6.87;;
75499;SDS011;64076;51.466;7.260;2023-05-19T00:45:26;11.00;;;6.82;;
75499;SDS011;64076;51.466;7.260;2023-05-19T00:47:51;9.80;;;6.75;;
75499;SDS011;64076;51.466;7.260;2023-05-19T00:50:17;9.97;;;7.20;;
75499;SDS011;64076;51.466;7.260;2023-05-19T00:52:43;10.90;;;7.20;;
75499;SDS011;64076;51.466;7.260;2023-05-19T00:55:08;9.18;;;6.78;;
75499;SDS011;64076;51.466;7.260;2023-05-19T00:57:34;9.10;;;6.90;;
75499;SDS011;64076;51.466;7.260;2023-05-19T01:00:00;9.88;;;6.40;;
75499;SDS011;64076;51.466;7.260;2023-05-19T01:02:26;10.40;;;6.97;;
75499;SDS011;64076;51.466;7.260;2023-05-19T01:04:53;9.32;;;7.10;;
75499;SDS011;64076;51.466;7.260;2023-05-19T01:07:21;10.13;;;7.03;;
75499;SDS011;64076;51.466;7.260;2023-05-19T01:09:47;8.88;;;6.72;;
75499;SDS011;64076;51.466;7.260;2023-05-19T01:12:14;8.70;;;6.35;;
75499;SDS011;64076;51.466;7.260;2023-05-19T01:14:40;7.93;;;6.87;;
75499;SDS011;64076;51.466;7.260;2023-05-19T01:17:18;8.73;;;6.47;;
75499;SDS011;64076;51.466;7.260;2023-05-19T01:23:33;8.70;;;6.80;;
75499;SDS011;64076;51.466;7.260;2023-05-19T01:31:31;9.95;;;6.50;;
75499;SDS011;64076;51.466;7.260;2023-05-19T01:33:57;10.77;;;7.15;;
75499;SDS011;64076;51.466;7.260;2023-05-19T01:36:25;9.27;;;6.57;;
75499;SDS011;64076;51.466;7.260;2023-05-19T01:38:53;10.55;;;6.93;;
75499;SDS011;64076;51.466;7.260;2023-05-19T01:41:20;9.60;;;6.60;;
75499;SDS011;64076;51.466;7.260;2023-05-19T01:43:47;9.55;;;6.90;;
75499;SDS011;64076;51.466;7.260;2023-05-19T01:46:13;9.73;;;7.05;;
75499;SDS011;64076;51.466;7.260;2023-05-19T01:48:40;9.02;;;6.60;;
75499;SDS011;64076;51.466;7.260;2023-05-19T01:51:07;9.27;;;6.90;;
75499;SDS011;64076;51.466;7.260;2023-05-19T01:53:33;10.30;;;7.10;;
75499;SDS011;64076;51.466;7.260;2023-05-19T01:55:58;8.60;;;6.90;;
75499;SDS011;64076;51.466;7.260;2023-05-19T02:01:02;11.10;;;7.53;;
75499;SDS011;64076;51.466;7.260;2023-05-19T02:03:58;10.38;;;6.68;;
75499;SDS011;64076;51.466;7.260;2023-05-19T02:06:35;10.13;;;6.93;;
75499;SDS011;64076;51.466;7.260;2023-05-19T02:09:30;9.27;;;6.60;;
75499;SDS011;64076;51.466;7.260;2023-05-19T02:12:08;10.60;;;7.35;;
75499;SDS011;64076;51.466;7.260;2023-05-19T02:14:51;9.85;;;7.32;;
75499;SDS011;64076;51.466;7.260;2023-05-19T02:17:23;9.50;;;6.63;;
75499;SDS011;64076;51.466;7.260;2023-05-19T02:19:53;8.13;;;6.60;;
75499;SDS011;64076;51.466;7.260;2023-05-19T02:22:18;9.47;;;6.63;;
75499;SDS011;64076;51.466;7.260;2023-05-19T02:24:44;9.43;;;6.60;;
75499;SDS011;64076;51.466;7.260;2023-05-19T02:27:11;9.13;;;6.47;;
75499;SDS011;64076;51.466;7.260;2023-05-19T02:29:37;10.25;;;6.97;;
75499;SDS011;64076;51.466;7.260;2023-05-19T02:32:02;9.43;;;6.17;;
75499;SDS011;64076;51.466;7.260;2023-05-19T02:34:28;8.18;;;6.45;;
75499;SDS011;64076;51.466;7.260;2023-05-19T02:36:54;9.57;;;6.70;;
75499;SDS011;64076;51.466;7.260;2023-05-19T02:39:20;10.32;;;6.57;;
75499;SDS011;64076;51.466;7.260;2023-05-19T02:41:45;10.23;;;6.97;;
75499;SDS011;64076;51.466;7.260;2023-05-19T02:44:11;9.73;;;7.30;;
75499;SDS011;64076;51.466;7.260;2023-05-19T02:46:36;9.40;;;6.90;;
75499;SDS011;64076;51.466;7.260;2023-05-19T02:49:02;8.70;;;6.50;;
75499;SDS011;64076;51.466;7.260;2023-05-19T02:51:27;8.03;;;6.23;;
75499;SDS011;64076;51.466;7.260;2023-05-19T02:53:53;8.30;;;7.03;;
75499;SDS011;64076;51.466;7.260;2023-05-19T02:56:18;10.47;;;6.77;;
75499;SDS011;64076;51.466;7.260;2023-05-19T02:58:45;9.40;;;7.18;;
75499;SDS011;64076;51.466;7.260;2023-05-19T03:01:11;9.40;;;6.90;;
75499;SDS011;64076;51.466;7.260;2023-05-19T03:03:36;9.73;;;6.73;;
75499;SDS011;64076;51.466;7.260;2023-05-19T03:06:02;9.13;;;6.80;;
75499;SDS011;64076;51.466;7.260;2023-05-19T03:08:27;8.30;;;6.90;;
75499;SDS011;64076;51.466;7.260;2023-05-19T03:10:53;9.67;;;7.20;;
75499;SDS011;64076;51.466;7.260;2023-05-19T03:13:18;10.20;;;7.17;;
75499;SDS011;64076;51.466;7.260;2023-05-19T03:15:44;9.60;;;7.32;;
75499;SDS011;64076;51.466;7.260;2023-05-19T03:18:09;8.77;;;7.00;;
75499;SDS011;64076;51.466;7.260;2023-05-19T03:20:38;9.68;;;7.20;;
75499;SDS011;64076;51.466;7.260;2023-05-19T03:23:06;10.48;;;7.35;;
75499;SDS011;64076;51.466;7.260;2023-05-19T03:25:32;9.53;;;7.20;;
75499;SDS011;64076;51.466;7.260;2023-05-19T03:27:58;8.30;;;6.97;;
75499;SDS011;64076;51.466;7.260;2023-05-19T03:30:23;9.87;;;6.80;;
75499;SDS011;64076;51.466;7.260;2023-05-19T03:32:49;9.45;;;7.15;;
75499;SDS011;64076;51.466;7.260;2023-05-19T03:35:16;9.83;;;7.17;;
75499;SDS011;64076;51.466;7.260;2023-05-19T03:37:41;10.27;;;7.15;;
75499;SDS011;64076;51.466;7.260;2023-05-19T03:40:07;10.37;;;7.47;;
75499;SDS011;64076;51.466;7.260;2023-05-19T03:42:33;9.68;;;6.95;;
75499;SDS011;64076;51.466;7.260;2023-05-19T03:44:58;12.07;;;6.97;;
75499;SDS011;64076;51.466;7.260;2023-05-19T03:47:24;9.02;;;7.00;;
75499;SDS011;64076;51.466;7.260;2023-05-19T03:49:49;11.90;;;7.40;;
75499;SDS011;64076;51.466;7.260;2023-05-19T03:52:15;10.00;;;6.90;;
75499;SDS011;64076;51.466;7.260;2023-05-19T03:54:41;8.82;;;6.57;;
75499;SDS011;64076;51.466;7.260;2023-05-19T03:57:08;9.87;;;7.30;;
75499;SDS011;64076;51.466;7.260;2023-05-19T03:59:35;11.35;;;7.88;;
75499;SDS011;64076;51.466;7.260;2023-05-19T04:02:01;9.88;;;7.40;;
75499;SDS011;64076;51.466;7.260;2023-05-19T04:04:27;10.40;;;7.32;;
75499;SDS011;64076;51.466;7.260;2023-05-19T04:06:52;9.83;;;7.30;;
75499;SDS011;64076;51.466;7.260;2023-05-19T04:09:18;9.93;;;7.70;;
75499;SDS011;64076;51.466;7.260;2023-05-19T04:11:44;11.03;;;7.60;;
75499;SDS011;64076;51.466;7.260;2023-05-19T04:14:10;10.98;;;7.65;;
75499;SDS011;64076;51.466;7.260;2023-05-19T04:16:35;10.60;;;7.17;;
75499;SDS011;64076;51.466;7.260;2023-05-19T04:19:01;8.43;;;6.90;;
75499;SDS011;64076;51.466;7.260;2023-05-19T04:21:26;9.90;;;7.53;;
75499;SDS011;64076;51.466;7.260;2023-05-19T04:23:52;10.17;;;7.60;;
75499;SDS011;64076;51.466;7.260;2023-05-19T04:26:18;11.35;;;7.88;;
75499;SDS011;64076;51.466;7.260;2023-05-19T04:28:45;13.17;;;7.70;;
75499;SDS011;64076;51.466;7.260;2023-05-19T04:31:12;9.52;;;7.20;;
75499;SDS011;64076;51.466;7.260;2023-05-19T04:33:38;9.93;;;6.95;;
75499;SDS011;64076;51.466;7.260;2023-05-19T04:36:04;9.82;;;7.18;;
75499;SDS011;64076;51.466;7.260;2023-05-19T04:38:33;10.38;;;7.55;;
75499;SDS011;64076;51.466;7.260;2023-05-19T04:40:59;11.67;;;7.67;;
75499;SDS011;64076;51.466;7.260;2023-05-19T04:43:25;12.15;;;7.93;;
75499;SDS011;64076;51.466;7.260;2023-05-19T04:45:52;10.52;;;7.85;;
75499;SDS011;64076;51.466;7.260;2023-05-19T04:48:18;11.05;;;8.25;;
75499;SDS011;64076;51.466;7.260;2023-05-19T04:50:45;11.40;;;8.13;;
75499;SDS011;64076;51.466;7.260;2023-05-19T04:53:12;11.67;;;8.07;;
75499;SDS011;64076;51.466;7.260;2023-05-19T04:55:38;10.80;;;8.20;;
75499;SDS011;64076;51.466;7.260;2023-05-19T04:58:04;10.32;;;8.77;;
75499;SDS011;64076;51.466;7.260;2023-05-19T05:00:30;11.10;;;8.77;;
75499;SDS011;64076;51.466;7.260;2023-05-19T05:02:56;10.38;;;8.48;;
75499;SDS011;64076;51.466;7.260;2023-05-19T05:05:22;10.90;;;8.53;;
75499;SDS011;64076;51.466;7.260;2023-05-19T05:07:48;11.05;;;8.27;;
75499;SDS011;64076;51.466;7.260;2023-05-19T05:10:14;12.95;;;8.95;;
75499;SDS011;64076;51.466;7.260;2023-05-19T05:12:39;10.37;;;8.03;;
75499;SDS011;64076;51.466;7.260;2023-05-19T05:15:05;11.15;;;7.93;;
75499;SDS011;64076;51.466;7.260;2023-05-19T05:17:32;8.18;;;7.38;;
75499;SDS011;64076;51.466;7.260;2023-05-19T05:19:59;9.65;;;7.43;;
75499;SDS011;64076;51.466;7.260;2023-05-19T05:22:25;9.37;;;6.90;;
75499;SDS011;64076;51.466;7.260;2023-05-19T05:24:51;7.90;;;6.68;;
75499;SDS011;64076;51.466;7.260;2023-05-19T05:27:17;8.00;;;6.45;;
75499;SDS011;64076;51.466;7.260;2023-05-19T05:29:42;8.37;;;6.57;;
75499;SDS011;64076;51.466;7.260;2023-05-19T05:32:08;8.43;;;6.20;;
75499;SDS011;64076;51.466;7.260;2023-05-19T05:34:33;8.07;;;6.33;;
75499;SDS011;64076;51.466;7.260;2023-05-19T05:37:01;6.90;;;5.80;;
75499;SDS011;64076;51.466;7.260;2023-05-19T05:39:27;6.38;;;5.50;;
75499;SDS011;64076;51.466;7.260;2023-05-19T05:41:52;6.13;;;5.20;;
75499;SDS011;64076;51.466;7.260;2023-05-19T05:44:18;7.37;;;5.37;;
75499;SDS011;64076;51.466;7.260;2023-05-19T05:46:43;5.72;;;5.10;;
75499;SDS011;64076;51.466;7.260;2023-05-19T05:49:09;6.33;;;5.53;;
75499;SDS011;64076;51.466;7.260;2023-05-19T05:51:36;6.82;;;5.25;;
75499;SDS011;64076;51.466;7.260;2023-05-19T05:54:02;5.60;;;4.80;;
75499;SDS011;64076;51.466;7.260;2023-05-19T05:56:30;5.93;;;4.70;;
75499;SDS011;64076;51.466;7.260;2023-05-19T05:58:57;6.05;;;4.97;;
75499;SDS011;64076;51.466;7.260;2023-05-19T06:01:23;5.88;;;4.57;;
75499;SDS011;64076;51.466;7.260;2023-05-19T06:03:49;7.17;;;4.80;;
75499;SDS011;64076;51.466;7.260;2023-05-19T06:06:14;5.60;;;4.88;;
75499;SDS011;64076;51.466;7.260;2023-05-19T06:08:40;5.80;;;5.10;;
75499;SDS011;64076;51.466;7.260;2023-05-19T06:11:06;4.95;;;4.38;;
75499;SDS011;64076;51.466;7.260;2023-05-19T06:13:36;5.53;;;4.40;;
75499;SDS011;64076;51.466;7.260;2023-05-19T06:16:02;4.85;;;4.25;;
75499;SDS011;64076;51.466;7.260;2023-05-19T06:18:28;4.80;;;4.20;;
75499;SDS011;64076;51.466;7.260;2023-05-19T06:20:54;4.80;;;4.17;;
75499;SDS011;64076;51.466;7.260;2023-05-19T06:23:20;4.65;;;4.07;;
75499;SDS011;64076;51.466;7.260;2023-05-19T06:25:46;4.82;;;4.20;;
75499;SDS011;64076;51.466;7.260;2023-05-19T06:28:11;5.47;;;4.17;;
75499;SDS011;64076;51.466;7.260;2023-05-19T06:30:37;4.53;;;3.60;;
75499;SDS011;64076;51.466;7.260;2023-05-19T06:33:02;4.47;;;3.78;;
75499;SDS011;64076;51.466;7.260;2023-05-19T06:35:28;4.63;;;3.93;;
75499;SDS011;64076;51.466;7.260;2023-05-19T06:37:54;4.45;;;3.72;;
75499;SDS011;64076;51.466;7.260;2023-05-19T06:40:20;4.43;;;3.70;;
75499;SDS011;64076;51.466;7.260;2023-05-19T06:42:46;4.22;;;3.78;;
75499;SDS011;64076;51.466;7.260;2023-05-19T06:45:12;4.72;;;3.78;;
75499;SDS011;64076;51.466;7.260;2023-05-19T06:47:37;4.63;;;3.67;;
75499;SDS011;64076;51.466;7.260;2023-05-19T06:50:05;4.18;;;3.55;;
75499;SDS011;64076;51.466;7.260;2023-05-19T06:52:31;4.87;;;3.70;;
75499;SDS011;64076;51.466;7.260;2023-05-19T06:54:56;4.55;;;3.70;;
75499;SDS011;64076;51.466;7.260;2023-05-19T06:57:22;3.57;;;3.20;;
75499;SDS011;64076;51.466;7.260;2023-05-19T06:59:47;4.10;;;3.33;;
75499;SDS011;64076;51.466;7.260;2023-05-19T07:02:13;4.30;;;3.60;;
75499;SDS011;64076;51.466;7.260;2023-05-19T07:04:38;4.40;;;3.60;;
75499;SDS011;64076;51.466;7.260;2023-05-19T07:07:04;4.55;;;3.70;;
75499;SDS011;64076;51.466;7.260;2023-05-19T07:09:30;3.40;;;2.90;;
75499;SDS011;64076;51.466;7.260;2023-05-19T07:11:56;4.13;;;3.17;;
75499;SDS011;64076;51.466;7.260;2023-05-19T07:14:21;3.88;;;3.22;;
75499;SDS011;64076;51.466;7.260;2023-05-19T07:16:47;3.83;;;3.13;;
75499;SDS011;64076;51.466;7.260;2023-05-19T07:19:13;4.05;;;3.17;;
75499;SDS011;64076;51.466;7.260;2023-05-19T07:21:38;3.40;;;2.90;;
75499;SDS011;64076;51.466;7.260;2023-05-19T07:24:04;3.20;;;2.90;;
75499;SDS011;64076;51.466;7.260;2023-05-19T07:26:30;4.10;;;2.90;;
75499;SDS011;64076;51.466;7.260;2023-05-19T07:28:55;3.40;;;2.90;;
75499;SDS011;64076;51.466;7.260;2023-05-19T07:31:21;3.67;;;3.25;;
75499;SDS011;64076;51.466;7.260;2023-05-19T07:33:47;3.67;;;3.10;;
75499;SDS011;64076;51.466;7.260;2023-05-19T07:36:12;3.90;;;2.80;;
75499;SDS011;64076;51.466;7.260;2023-05-19T07:38:38;3.38;;;2.65;;
75499;SDS011;64076;51.466;7.260;2023-05-19T07:41:03;3.63;;;2.63;;
75499;SDS011;64076;51.466;7.260;2023-05-19T07:43:29;3.30;;;2.70;;
75499;SDS011;64076;51.466;7.260;2023-05-19T07:45:55;3.80;;;2.60;;
75499;SDS011;64076;51.466;7.260;2023-05-19T07:48:21;3.60;;;2.80;;
75499;SDS011;64076;51.466;7.260;2023-05-19T07:50:48;2.90;;;2.50;;
75499;SDS011;64076;51.466;7.260;2023-05-19T07:53:14;3.35;;;2.70;;
75499;SDS011;64076;51.466;7.260;2023-05-19T07:55:40;3.20;;;2.63;;
75499;SDS011;64076;51.466;7.260;2023-05-19T07:58:06;3.20;;;2.50;;
75499;SDS011;64076;51.466;7.260;2023-05-19T08:00:31;3.65;;;2.70;;
75499;SDS011;64076;51.466;7.260;2023-05-19T08:02:57;3.17;;;2.50;;
75499;SDS011;64076;51.466;7.260;2023-05-19T08:05:23;3.53;;;2.65;;
75499;SDS011;64076;51.466;7.260;2023-05-19T08:07:49;2.73;;;2.33;;
75499;SDS011;64076;51.466;7.260;2023-05-19T08:10:15;2.90;;;2.40;;
75499;SDS011;64076;51.466;7.260;2023-05-19T08:12:41;2.75;;;2.30;;
75499;SDS011;64076;51.466;7.260;2023-05-19T08:15:08;3.43;;;2.50;;
75499;SDS011;64076;51.466;7.260;2023-05-19T08:17:35;3.30;;;2.55;;
75499;SDS011;64076;51.466;7.260;2023-05-19T08:20:01;2.88;;;2.22;;
75499;SDS011;64076;51.466;7.260;2023-05-19T08:22:29;3.33;;;2.50;;
75499;SDS011;64076;51.466;7.260;2023-05-19T08:24:54;3.03;;;2.40;;
75499;SDS011;64076;51.466;7.260;2023-05-19T08:27:20;2.97;;;2.25;;
75499;SDS011;64076;51.466;7.260;2023-05-19T08:29:46;2.80;;;2.20;;
75499;SDS011;64076;51.466;7.260;2023-05-19T08:32:11;2.75;;;2.00;;
75499;SDS011;64076;51.466;7.260;2023-05-19T08:34:37;2.87;;;2.10;;
75499;SDS011;64076;51.466;7.260;2023-05-19T08:37:03;2.60;;;2.10;;
75499;SDS011;64076;51.466;7.260;2023-05-19T08:39:28;3.13;;;2.25;;
75499;SDS011;64076;51.466;7.260;2023-05-19T08:41:56;2.72;;;2.05;;
75499;SDS011;64076;51.466;7.260;2023-05-19T08:44:22;3.07;;;2.20;;
75499;SDS011;64076;51.466;7.260;2023-05-19T08:46:47;2.90;;;2.07;;
75499;SDS011;64076;51.466;7.260;2023-05-19T08:49:16;2.80;;;2.00;;
75499;SDS011;64076;51.466;7.260;2023-05-19T08:54:54;2.35;;;1.80;;
75499;SDS011;64076;51.466;7.260;2023-05-19T08:57:25;2.92;;;2.00;;
75499;SDS011;64076;51.466;7.260;2023-05-19T08:59:51;2.57;;;1.97;;
75499;SDS011;64076;51.466;7.260;2023-05-19T09:02:18;2.70;;;1.92;;
75499;SDS011;64076;51.466;7.260;2023-05-19T09:04:45;2.60;;;2.10;;
75499;SDS011;64076;51.466;7.260;2023-05-19T09:07:14;2.72;;;2.00;;
75499;SDS011;64076;51.466;7.260;2023-05-19T09:09:40;3.03;;;2.00;;
75499;SDS011;64076;51.466;7.260;2023-05-19T09:12:08;2.37;;;1.83;;
75499;SDS011;64076;51.466;7.260;2023-05-19T09:14:37;2.60;;;1.80;;
75499;SDS011;64076;51.466;7.260;2023-05-19T09:17:03;2.20;;;1.85;;
75499;SDS011;64076;51.466;7.260;2023-05-19T09:19:29;2.20;;;1.90;;
75499;SDS011;64076;51.466;7.260;2023-05-19T09:21:59;2.20;;;1.73;;
75499;SDS011;64076;51.466;7.260;2023-05-19T09:24:27;2.40;;;1.90;;
75499;SDS011;64076;51.466;7.260;2023-05-19T09:26:53;2.33;;;1.60;;
75499;SDS011;64076;51.466;7.260;2023-05-19T09:29:20;3.45;;;2.00;;
75499;SDS011;64076;51.466;7.260;2023-05-19T09:31:47;2.30;;;1.70;;
75499;SDS011;64076;51.466;7.260;2023-05-19T09:34:17;2.22;;;1.58;;
75499;SDS011;64076;51.466;7.260;2023-05-19T09:36:43;2.70;;;1.80;;
75499;SDS011;64076;51.466;7.260;2023-05-19T09:39:16;2.10;;;1.63;;
75499;SDS011;64076;51.466;7.260;2023-05-19T09:41:43;2.00;;;1.55;;
75499;SDS011;64076;51.466;7.260;2023-05-19T09:44:12;2.00;;;1.73;;
75499;SDS011;64076;51.466;7.260;2023-05-19T09:46:51;2.13;;;1.60;;
75499;SDS011;64076;51.466;7.260;2023-05-19T09:49:18;2.30;;;1.80;;
75499;SDS011;64076;51.466;7.260;2023-05-19T09:51:48;3.10;;;1.70;;
75499;SDS011;64076;51.466;7.260;2023-05-19T09:54:15;2.20;;;1.40;;
75499;SDS011;64076;51.466;7.260;2023-05-19T09:56:41;2.83;;;1.52;;
75499;SDS011;64076;51.466;7.260;2023-05-19T09:59:06;2.80;;;1.80;;
75499;SDS011;64076;51.466;7.260;2023-05-19T10:01:32;2.70;;;1.65;;
75499;SDS011;64076;51.466;7.260;2023-05-19T10:04:00;2.00;;;1.70;;
75499;SDS011;64076;51.466;7.260;2023-05-19T10:06:26;2.10;;;1.60;;
75499;SDS011;64076;51.466;7.260;2023-05-19T10:08:52;2.10;;;1.57;;
75499;SDS011;64076;51.466;7.260;2023-05-19T10:11:18;2.00;;;1.70;;
75499;SDS011;64076;51.466;7.260;2023-05-19T10:13:46;1.90;;;1.60;;
75499;SDS011;64076;51.466;7.260;2023-05-19T10:16:15;3.05;;;1.70;;
75499;SDS011;64076;51.466;7.260;2023-05-19T10:18:42;2.30;;;1.67;;
75499;SDS011;64076;51.466;7.260;2023-05-19T10:21:08;2.22;;;1.63;;
75499;SDS011;64076;51.466;7.260;2023-05-19T10:23:36;2.88;;;1.77;;
75499;SDS011;64076;51.466;7.260;2023-05-19T10:26:01;2.50;;;1.83;;
75499;SDS011;64076;51.466;7.260;2023-05-19T10:28:32;2.37;;;1.70;;
75499;SDS011;64076;51.466;7.260;2023-05-19T10:31:00;2.35;;;1.70;;
75499;SDS011;64076;51.466;7.260;2023-05-19T10:33:41;2.50;;;1.88;;
75499;SDS011;64076;51.466;7.260;2023-05-19T10:36:14;1.90;;;1.38;;
75499;SDS011;64076;51.466;7.260;2023-05-19T10:38:57;2.47;;;1.70;;
75499;SDS011;64076;51.466;7.260;2023-05-19T10:41:34;2.13;;;1.70;;
75499;SDS011;64076;51.466;7.260;2023-05-19T10:47:06;2.00;;;1.60;;
75499;SDS011;64076;51.466;7.260;2023-05-19T10:49:35;2.00;;;1.45;;
75499;SDS011;64076;51.466;7.260;2023-05-19T10:52:00;2.15;;;1.63;;
75499;SDS011;64076;51.466;7.260;2023-05-19T10:54:39;2.20;;;1.30;;
75499;SDS011;64076;51.466;7.260;2023-05-19T10:57:05;2.13;;;1.60;;
75499;SDS011;64076;51.466;7.260;2023-05-19T10:59:34;2.40;;;1.63;;
75499;SDS011;64076;51.466;7.260;2023-05-19T11:02:04;2.30;;;1.67;;
75499;SDS011;64076;51.466;7.260;2023-05-19T11:04:46;1.80;;;1.60;;
75499;SDS011;64076;51.466;7.260;2023-05-19T11:07:18;2.40;;;1.70;;
75499;SDS011;64076;51.466;7.260;2023-05-19T11:09:52;2.00;;;1.58;;
75499;SDS011;64076;51.466;7.260;2023-05-19T11:12:21;1.87;;;1.50;;
75499;SDS011;64076;51.466;7.260;2023-05-19T11:14:48;1.80;;;1.50;;
75499;SDS011;64076;51.466;7.260;2023-05-19T11:17:17;2.13;;;1.75;;
75499;SDS011;64076;51.466;7.260;2023-05-19T11:19:55;2.13;;;1.63;;
75499;SDS011;64076;51.466;7.260;2023-05-19T11:22:23;1.90;;;1.60;;
75499;SDS011;64076;51.466;7.260;2023-05-19T11:24:50;1.80;;;1.40;;
75499;SDS011;64076;51.466;7.260;2023-05-19T11:27:26;2.15;;;1.77;;
75499;SDS011;64076;51.466;7.260;2023-05-19T11:29:55;2.00;;;1.50;;
75499;SDS011;64076;51.466;7.260;2023-05-19T11:32:41;2.00;;;1.67;;
75499;SDS011;64076;51.466;7.260;2023-05-19T11:35:11;1.88;;;1.50;;
75499;SDS011;64076;51.466;7.260;2023-05-19T11:37:38;2.33;;;1.70;;
75499;SDS011;64076;51.466;7.260;2023-05-19T11:40:05;1.90;;;1.60;;
75499;SDS011;64076;51.466;7.260;2023-05-19T11:42:32;2.03;;;1.77;;
75499;SDS011;64076;51.466;7.260;2023-05-19T11:45:01;1.80;;;1.50;;
75499;SDS011;64076;51.466;7.260;2023-05-19T11:47:29;1.90;;;1.60;;
75499;SDS011;64076;51.466;7.260;2023-05-19T11:49:56;2.53;;;1.70;;
75499;SDS011;64076;51.466;7.260;2023-05-19T11:52:22;2.88;;;1.60;;
75499;SDS011;64076;51.466;7.260;2023-05-19T11:54:48;1.73;;;1.40;;
75499;SDS011;64076;51.466;7.260;2023-05-19T11:57:14;2.10;;;1.57;;
75499;SDS011;64076;51.466;7.260;2023-05-19T11:59:40;2.00;;;1.40;;
75499;SDS011;64076;51.466;7.260;2023-05-19T12:04:44;2.10;;;1.70;;
75499;SDS011;64076;51.466;7.260;2023-05-19T12:07:11;2.03;;;1.50;;
75499;SDS011;64076;51.466;7.260;2023-05-19T12:09:37;2.35;;;1.48;;
75499;SDS011;64076;51.466;7.260;2023-05-19T12:12:03;1.90;;;1.40;;
75499;SDS011;64076;51.466;7.260;2023-05-19T12:14:29;1.80;;;1.40;;
75499;SDS011;64076;51.466;7.260;2023-05-19T12:16:55;2.53;;;1.60;;
75499;SDS011;64076;51.466;7.260;2023-05-19T12:19:22;2.13;;;1.60;;
75499;SDS011;64076;51.466;7.260;2023-05-19T12:21:49;2.90;;;1.60;;
75499;SDS011;64076;51.466;7.260;2023-05-19T12:24:15;3.17;;;1.80;;
75499;SDS011;64076;51.466;7.260;2023-05-19T12:26:41;2.07;;;1.60;;
75499;SDS011;64076;51.466;7.260;2023-05-19T12:29:07;2.00;;;1.70;;
75499;SDS011;64076;51.466;7.260;2023-05-19T12:31:32;2.80;;;1.40;;
75499;SDS011;64076;51.466;7.260;2023-05-19T12:33:59;2.17;;;1.55;;
75499;SDS011;64076;51.466;7.260;2023-05-19T12:36:25;2.75;;;1.38;;
75499;SDS011;64076;51.466;7.260;2023-05-19T12:38:53;1.70;;;1.17;;
75499;SDS011;64076;51.466;7.260;2023-05-19T12:41:19;2.25;;;1.40;;
75499;SDS011;64076;51.466;7.260;2023-05-19T12:43:44;2.30;;;1.40;;
75499;SDS011;64076;51.466;7.260;2023-05-19T12:46:10;1.80;;;1.30;;
75499;SDS011;64076;51.466;7.260;2023-05-19T12:48:43;2.15;;;1.50;;
75499;SDS011;64076;51.466;7.260;2023-05-19T12:51:10;2.30;;;1.50;;
75499;SDS011;64076;51.466;7.260;2023-05-19T12:53:40;2.03;;;1.63;;
75499;SDS011;64076;51.466;7.260;2023-05-19T12:56:10;2.30;;;1.50;;
75499;SDS011;64076;51.466;7.260;2023-05-19T12:58:37;2.08;;;1.40;;
75499;SDS011;64076;51.466;7.260;2023-05-19T13:01:03;2.17;;;1.70;;
75499;SDS011;64076;51.466;7.260;2023-05-19T13:03:30;2.10;;;1.40;;
75499;SDS011;64076;51.466;7.260;2023-05-19T13:05:55;1.80;;;1.37;;
75499;SDS011;64076;51.466;7.260;2023-05-19T13:08:23;1.98;;;1.25;;
75499;SDS011;64076;51.466;7.260;2023-05-19T13:10:49;1.80;;;1.30;;
75499;SDS011;64076;51.466;7.260;2023-05-19T13:13:14;2.00;;;1.48;;
75499;SDS011;64076;51.466;7.260;2023-05-19T13:15:43;2.30;;;1.37;;
75499;SDS011;64076;51.466;7.260;2023-05-19T13:18:12;2.20;;;1.40;;
75499;SDS011;64076;51.466;7.260;2023-05-19T13:20:38;1.77;;;1.20;;
75499;SDS011;64076;51.466;7.260;2023-05-19T13:23:05;2.63;;;1.63;;
75499;SDS011;64076;51.466;7.260;2023-05-19T13:25:31;2.10;;;1.58;;
75499;SDS011;64076;51.466;7.260;2023-05-19T13:27:58;1.60;;;1.13;;
75499;SDS011;64076;51.466;7.260;2023-05-19T13:30:25;2.50;;;1.45;;
75499;SDS011;64076;51.466;7.260;2023-05-19T13:32:51;2.40;;;1.48;;
75499;SDS011;64076;51.466;7.260;2023-05-19T13:35:17;1.92;;;1.50;;
75499;SDS011;64076;51.466;7.260;2023-05-19T13:37:43;2.00;;;1.40;;
75499;SDS011;64076;51.466;7.260;2023-05-19T13:40:09;1.90;;;1.50;;
75499;SDS011;64076;51.466;7.260;2023-05-19T13:42:35;2.22;;;1.30;;
75499;SDS011;64076;51.466;7.260;2023-05-19T13:45:01;1.90;;;1.20;;
75499;SDS011;64076;51.466;7.260;2023-05-19T13:47:27;2.43;;;1.60;;
75499;SDS011;64076;51.466;7.260;2023-05-19T13:49:53;2.58;;;1.55;;
75499;SDS011;64076;51.466;7.260;2023-05-19T13:52:19;2.00;;;1.33;;
75499;SDS011;64076;51.466;7.260;2023-05-19T13:54:46;1.70;;;1.00;;
75499;SDS011;64076;51.466;7.260;2023-05-19T13:57:12;1.80;;;1.40;;
75499;SDS011;64076;51.466;7.260;2023-05-19T13:59:38;1.90;;;1.30;;
75499;SDS011;64076;51.466;7.260;2023-05-19T14:02:04;1.80;;;1.30;;
75499;SDS011;64076;51.466;7.260;2023-05-19T14:04:31;2.30;;;1.38;;
75499;SDS011;64076;51.466;7.260;2023-05-19T14:06:56;1.77;;;1.20;;
75499;SDS011;64076;51.466;7.260;2023-05-19T14:09:22;1.83;;;1.23;;
75499;SDS011;64076;51.466;7.260;2023-05-19T14:11:48;2.28;;;1.30;;
75499;SDS011;64076;51.466;7.260;2023-05-19T14:14:14;1.80;;;1.40;;
75499;SDS011;64076;51.466;7.260;2023-05-19T14:16:39;1.80;;;1.10;;
75499;SDS011;64076;51.466;7.260;2023-05-19T14:19:05;2.10;;;1.40;;
75499;SDS011;64076;51.466;7.260;2023-05-19T14:21:31;1.80;;;1.30;;
75499;SDS011;64076;51.466;7.260;2023-05-19T14:23:57;2.00;;;1.43;;
75499;SDS011;64076;51.466;7.260;2023-05-19T14:26:23;1.90;;;1.38;;
75499;SDS011;64076;51.466;7.260;2023-05-19T14:28:48;1.93;;;1.43;;
75499;SDS011;64076;51.466;7.260;2023-05-19T14:31:14;1.80;;;1.50;;
75499;SDS011;64076;51.466;7.260;2023-05-19T14:33:40;2.50;;;1.50;;
75499;SDS011;64076;51.466;7.260;2023-05-19T14:36:06;3.03;;;1.25;;
75499;SDS011;64076;51.466;7.260;2023-05-19T14:38:32;2.60;;;1.55;;
75499;SDS011;64076;51.466;7.260;2023-05-19T14:40:57;2.17;;;1.57;;
75499;SDS011;64076;51.466;7.260;2023-05-19T14:43:23;2.10;;;1.23;;
75499;SDS011;64076;51.466;7.260;2023-05-19T14:45:49;2.10;;;1.60;;
75499;SDS011;64076;51.466;7.260;2023-05-19T14:48:14;2.30;;;1.70;;
75499;SDS011;64076;51.466;7.260;2023-05-19T14:50:40;2.00;;;1.37;;
75499;SDS011;64076;51.466;7.260;2023-05-19T14:53:05;2.15;;;1.30;;
75499;SDS011;64076;51.466;7.260;2023-05-19T14:55:31;2.30;;;1.60;;
75499;SDS011;64076;51.466;7.260;2023-05-19T14:57:56;2.80;;;1.70;;
75499;SDS011;64076;51.466;7.260;2023-05-19T15:00:22;2.17;;;1.70;;
75499;SDS011;64076;51.466;7.260;2023-05-19T15:02:50;2.20;;;1.38;;
75499;SDS011;64076;51.466;7.260;2023-05-19T15:05:18;2.00;;;1.52;;